This is the latest recevied weather packets stored in our database for station/object PP5ABU-13. If no packets are shown the sender has not sent any weather packets the latest 10 day(s).
| Time | Temp. | Humidity | Pressure | Rain* | Wind** | Luminosity | Snow |
|---|---|---|---|---|---|---|---|
| 1777427105 | 20° C | 78% | 1015.8 hPa | 0 mm | - | - | - |
| 1777426204 | 20° C | 78% | 1015.7 hPa | 0 mm | - | - | - |
| 1777425304 | 19.44° C | 78% | 1015.7 hPa | 0 mm | - | - | - |
| 1777424405 | 19.44° C | 77% | 1015.5 hPa | 0 mm | - | - | - |
| 1777423505 | 19.44° C | 75% | 1015.3 hPa | 0 mm | - | - | - |
| 1777422604 | 18.89° C | 74% | 1015.2 hPa | 0 mm | - | - | - |
| 1777421704 | 18.89° C | 75% | 1015 hPa | 0 mm | - | - | - |
| 1777420805 | 18.89° C | 75% | 1015.3 hPa | 0 mm | - | - | - |
| 1777419904 | 18.89° C | 75% | 1015.3 hPa | 0 mm | - | - | - |
| 1777419004 | 18.89° C | 75% | 1015.4 hPa | 0 mm | - | - | - |
| 1777418104 | 18.89° C | 74% | 1015.5 hPa | 0 mm | - | - | - |
| 1777417205 | 19.44° C | 74% | 1015.6 hPa | 0 mm | - | - | - |
| 1777416305 | 19.44° C | 74% | 1015.4 hPa | 0 mm | - | - | - |
| 1777415404 | 19.44° C | 74% | 1015.2 hPa | 0 mm | - | - | - |
| 1777414505 | 19.44° C | 73% | 1015.3 hPa | 0 mm | - | - | - |
| 1777413604 | 19.44° C | 73% | 1015.3 hPa | 0 mm | - | - | - |
| 1777412705 | 19.44° C | 72% | 1014.8 hPa | 0 mm | - | - | - |
| 1777411804 | 19.44° C | 72% | 1014.8 hPa | 0 mm | - | - | - |
| 1777410904 | 19.44° C | 71% | 1014.7 hPa | 0 mm | - | - | - |
| 1777410004 | 19.44° C | 71% | 1014.7 hPa | 0 mm | - | - | - |
| 1777409105 | 20° C | 70% | 1014.4 hPa | 0 mm | - | - | - |
| 1777408204 | 20.56° C | 69% | 1014.5 hPa | 0 mm | - | - | - |
| 1777407304 | 21.67° C | 65% | 1014.7 hPa | 0 mm | - | - | - |
| 1777406404 | 23.33° C | 58% | 1014.5 hPa | 0 mm | - | - | - |
| 1777405504 | 23.33° C | 59% | 1014.7 hPa | 0 mm | - | - | - |
* Rain latest hour (hover to see other rain measurements)
** Current wind speed in m/s (hover to see current wind gust speed)